createdAt,value
2023-05-06T00:01:09.046Z,100997.16
2023-05-06T00:03:36.723Z,100998.13
2023-05-06T00:06:06.403Z,100997.06
2023-05-06T00:08:34.053Z,101001.22
2023-05-06T00:11:01.699Z,101005.66
2023-05-06T00:13:29.237Z,101001.63
2023-05-06T00:15:58.050Z,100994.69
2023-05-06T00:18:26.219Z,101013.19
2023-05-06T00:20:53.700Z,101008.88
2023-05-06T00:23:21.192Z,101017.03
2023-05-06T00:25:48.875Z,101023.59
2023-05-06T00:28:16.406Z,101015.66
2023-05-06T00:30:43.977Z,101020.88
2023-05-06T00:33:11.738Z,101024.63
2023-05-06T00:35:41.128Z,101025.56
2023-05-06T00:38:13.611Z,101027.88
2023-05-06T00:40:43.178Z,101034.34
2023-05-06T00:43:11.133Z,101030.94
2023-05-06T00:45:38.840Z,101030.75
2023-05-06T00:48:07.844Z,101030.81
2023-05-06T00:50:36.167Z,101037.97
2023-05-06T00:53:04.526Z,101022.56
2023-05-06T00:55:32.484Z,101013.88
2023-05-06T00:58:01.252Z,101019.69
2023-05-06T01:00:28.952Z,101008.03
2023-05-06T01:02:57.064Z,101007.53
2023-05-06T01:05:29.934Z,101015.84
2023-05-06T01:08:16.945Z,101016.63
2023-05-06T01:10:44.730Z,101010.69
2023-05-06T01:13:19.936Z,101017.47
2023-05-06T01:15:54.114Z,101028.81
2023-05-06T01:18:23.266Z,101029.84
2023-05-06T01:20:53.129Z,101014.47
2023-05-06T01:23:21.065Z,101009.16
2023-05-06T01:25:48.658Z,101001.78
2023-05-06T01:28:17.755Z,101001.16
2023-05-06T01:30:55.709Z,101003.91
2023-05-06T01:33:51.078Z,101004.13
2023-05-06T01:36:38.528Z,101012.38
2023-05-06T01:39:20.506Z,101008.69
2023-05-06T01:41:50.237Z,101012.47
2023-05-06T01:44:21.802Z,101025.16
2023-05-06T01:46:51.649Z,101025.69
2023-05-06T01:49:20.418Z,101024.66
2023-05-06T01:51:50.971Z,101020.94
2023-05-06T01:54:18.784Z,101022.13
2023-05-06T01:56:46.670Z,101026.16
2023-05-06T01:59:15.703Z,101024.47
2023-05-06T02:01:43.221Z,101022.59
2023-05-06T02:04:10.734Z,101035.91
2023-05-06T02:06:38.890Z,101036.94
2023-05-06T02:09:06.620Z,101032.25
2023-05-06T02:11:39.230Z,101031.31
2023-05-06T02:14:08.282Z,101021.22
2023-05-06T02:16:36.816Z,101031.94
2023-05-06T02:19:06.067Z,101035.00
2023-05-06T02:21:33.606Z,101037.56
2023-05-06T02:24:01.060Z,101035.69
2023-05-06T02:26:28.635Z,101032.25
2023-05-06T02:28:56.185Z,101031.94
2023-05-06T02:31:23.721Z,101039.44
2023-05-06T02:33:51.302Z,101034.81
2023-05-06T02:36:18.823Z,101048.16
2023-05-06T02:38:47.586Z,101043.56
2023-05-06T02:41:15.162Z,101040.59
2023-05-06T02:43:42.600Z,101048.53
2023-05-06T02:46:10.206Z,101048.84
2023-05-06T02:48:37.758Z,101046.13
2023-05-06T02:51:06.247Z,101049.00
2023-05-06T02:53:33.990Z,101049.84
2023-05-06T02:56:01.616Z,101042.84
2023-05-06T02:58:29.303Z,101055.44
2023-05-06T03:00:56.942Z,101056.47
2023-05-06T03:03:24.593Z,101057.34
2023-05-06T03:05:52.102Z,101056.09
2023-05-06T03:08:19.769Z,101066.50
2023-05-06T03:10:47.451Z,101068.78
2023-05-06T03:13:18.071Z,101062.78
2023-05-06T03:15:50.962Z,101059.28
2023-05-06T03:18:18.774Z,101060.13
2023-05-06T03:20:48.611Z,101073.91
2023-05-06T03:23:16.306Z,101082.56
2023-05-06T03:25:44.188Z,101097.50
2023-05-06T03:28:12.181Z,101092.50
2023-05-06T03:30:40.918Z,101091.44
2023-05-06T03:33:08.968Z,101086.59
2023-05-06T03:35:36.643Z,101092.34
2023-05-06T03:38:04.361Z,101100.75
2023-05-06T03:40:39.187Z,101099.19
2023-05-06T03:43:07.159Z,101103.41
2023-05-06T03:45:34.852Z,101103.78
2023-05-06T03:48:04.354Z,101101.47
2023-05-06T03:50:33.913Z,101101.09
2023-05-06T03:53:01.480Z,101110.28
2023-05-06T03:55:31.273Z,101107.00
2023-05-06T03:57:59.037Z,101118.28
2023-05-06T04:00:26.987Z,101103.09
2023-05-06T04:02:55.545Z,101112.97
2023-05-06T04:05:30.086Z,101122.09
2023-05-06T04:07:58.466Z,101122.09
2023-05-06T04:10:26.741Z,101120.47
2023-05-06T04:12:58.763Z,101115.25
2023-05-06T04:15:34.463Z,101104.34
2023-05-06T04:18:06.321Z,101102.31
2023-05-06T04:20:34.761Z,101109.16
2023-05-06T04:23:02.794Z,101114.06
2023-05-06T04:25:30.518Z,101113.13
2023-05-06T04:27:58.141Z,101119.31
2023-05-06T04:30:25.852Z,101129.25
2023-05-06T04:32:53.902Z,101127.09
2023-05-06T04:35:21.786Z,101133.69
2023-05-06T04:37:49.360Z,101130.03
2023-05-06T04:40:26.386Z,101135.97
2023-05-06T04:42:54.407Z,101134.00
2023-05-06T04:45:26.351Z,101135.19
2023-05-06T04:47:55.084Z,101147.75
2023-05-06T04:50:22.729Z,101143.44
2023-05-06T04:52:50.321Z,101140.81
2023-05-06T04:55:19.574Z,101139.53
2023-05-06T04:57:51.659Z,101139.84
2023-05-06T05:00:19.675Z,101152.63
2023-05-06T05:02:47.460Z,101149.53
2023-05-06T05:05:17.071Z,101150.13
2023-05-06T05:07:47.121Z,101146.38
2023-05-06T05:10:15.320Z,101134.69
2023-05-06T05:12:43.298Z,101142.00
2023-05-06T05:15:12.411Z,101137.66
2023-05-06T05:17:40.614Z,101137.16
2023-05-06T05:20:08.771Z,101142.38
2023-05-06T05:22:37.427Z,101135.47
2023-05-06T05:25:07.965Z,101134.28
2023-05-06T05:27:36.744Z,101133.25
2023-05-06T05:30:04.549Z,101140.88
2023-05-06T05:32:35.185Z,101135.16
2023-05-06T05:35:04.473Z,101144.22
2023-05-06T05:37:32.874Z,101139.25
2023-05-06T05:40:00.784Z,101138.22
2023-05-06T05:42:28.298Z,101137.13
2023-05-06T05:44:56.801Z,101139.44
2023-05-06T05:47:26.427Z,101138.72
2023-05-06T05:49:54.374Z,101133.97
2023-05-06T05:52:22.271Z,101142.25
2023-05-06T05:54:49.929Z,101132.88
2023-05-06T05:57:17.514Z,101143.59
2023-05-06T05:59:45.172Z,101131.88
2023-05-06T06:02:12.735Z,101137.78
2023-05-06T06:04:40.294Z,101133.06
2023-05-06T06:07:07.915Z,101133.03
2023-05-06T06:09:39.431Z,101141.22
2023-05-06T06:12:07.171Z,101140.19
2023-05-06T06:14:37.131Z,101145.38
2023-05-06T06:17:05.790Z,101130.28
2023-05-06T06:19:33.711Z,101136.75
2023-05-06T06:22:01.151Z,101150.88
2023-05-06T06:24:30.510Z,101151.00
2023-05-06T06:26:58.028Z,101146.72
2023-05-06T06:29:25.656Z,101149.56
2023-05-06T06:31:56.207Z,101147.94
2023-05-06T06:34:24.940Z,101153.56
2023-05-06T06:36:52.405Z,101152.16
2023-05-06T06:39:19.898Z,101158.78
2023-05-06T06:41:47.328Z,101164.47
2023-05-06T06:44:14.812Z,101165.91
2023-05-06T06:46:42.948Z,101159.66
2023-05-06T06:49:10.505Z,101172.56
2023-05-06T06:51:37.948Z,101171.25
2023-05-06T06:54:05.669Z,101154.25
2023-05-06T06:56:33.163Z,101169.53
2023-05-06T06:59:00.634Z,101179.22
2023-05-06T07:01:28.225Z,101166.13
2023-05-06T07:03:55.760Z,101173.50
2023-05-06T07:06:23.324Z,101167.75
2023-05-06T07:08:50.884Z,101174.03
2023-05-06T07:11:18.388Z,101176.88
2023-05-06T07:13:46.375Z,101169.63
2023-05-06T07:16:13.870Z,101174.09
2023-05-06T07:18:41.331Z,101167.72
2023-05-06T07:21:09.000Z,101166.22
2023-05-06T07:23:36.514Z,101177.97
2023-05-06T07:26:04.072Z,101178.88
2023-05-06T07:28:31.825Z,101179.44
2023-05-06T07:30:59.371Z,101182.09
2023-05-06T07:33:27.064Z,101176.38
2023-05-06T07:35:54.915Z,101194.78
2023-05-06T07:38:23.889Z,101199.16
2023-05-06T07:40:51.805Z,101180.91
2023-05-06T07:43:19.242Z,101183.50
2023-05-06T07:45:46.674Z,101189.22
2023-05-06T07:48:14.451Z,101183.28
2023-05-06T07:50:41.966Z,101192.28
2023-05-06T07:53:09.466Z,101194.22
2023-05-06T07:55:37.783Z,101192.41
2023-05-06T07:58:05.875Z,101187.47
2023-05-06T08:00:33.389Z,101186.84
2023-05-06T08:03:01.010Z,101191.13
2023-05-06T08:05:28.579Z,101199.13
2023-05-06T08:07:56.204Z,101189.53
2023-05-06T08:10:24.179Z,101198.28
2023-05-06T08:12:51.748Z,101193.75
2023-05-06T08:15:19.310Z,101190.75
2023-05-06T08:17:46.866Z,101189.50
2023-05-06T08:20:14.422Z,101197.91
2023-05-06T08:22:42.109Z,101196.94
2023-05-06T08:25:10.343Z,101205.00
2023-05-06T08:27:38.188Z,101198.84
2023-05-06T08:30:06.432Z,101206.91
2023-05-06T08:32:34.376Z,101193.66
2023-05-06T08:35:01.936Z,101206.34
2023-05-06T08:37:30.780Z,101196.31
2023-05-06T08:39:59.838Z,101197.72
2023-05-06T08:42:28.461Z,101200.34
2023-05-06T08:44:56.623Z,101197.06
2023-05-06T08:47:24.230Z,101196.34
2023-05-06T08:49:51.686Z,101202.06
2023-05-06T08:52:21.470Z,101208.97
2023-05-06T08:54:52.182Z,101201.41
2023-05-06T08:57:20.268Z,101205.25
2023-05-06T08:59:48.073Z,101192.13
2023-05-06T09:02:15.711Z,101203.63
2023-05-06T09:04:43.265Z,101209.16
2023-05-06T09:07:10.932Z,101212.06
2023-05-06T09:09:38.510Z,101219.38
2023-05-06T09:12:11.474Z,101210.81
2023-05-06T09:14:40.369Z,101189.06
2023-05-06T09:17:26.712Z,101216.47
2023-05-06T09:19:57.151Z,101213.75
2023-05-06T09:22:27.112Z,101225.75
2023-05-06T09:24:58.167Z,101219.09
2023-05-06T09:27:28.302Z,101211.31
2023-05-06T09:30:02.922Z,101204.69
2023-05-06T09:32:31.754Z,101203.88
2023-05-06T09:35:00.196Z,101214.47
2023-05-06T09:37:28.174Z,101212.34
2023-05-06T09:39:57.547Z,101208.00
2023-05-06T09:42:28.743Z,101210.69
2023-05-06T09:45:00.540Z,101209.09
2023-05-06T09:47:35.414Z,101200.16
2023-05-06T09:50:04.099Z,101208.09
2023-05-06T09:52:32.028Z,101201.88
2023-05-06T09:55:00.624Z,101207.75
2023-05-06T09:57:30.923Z,101206.34
2023-05-06T10:00:00.688Z,101203.22
2023-05-06T10:02:28.704Z,101196.75
2023-05-06T10:04:58.664Z,101202.47
2023-05-06T10:07:28.946Z,101192.41
2023-05-06T10:09:58.933Z,101203.00
2023-05-06T10:12:26.708Z,101201.38
2023-05-06T10:14:54.323Z,101203.44
2023-05-06T10:17:26.014Z,101199.56
2023-05-06T10:19:59.551Z,101201.06
2023-05-06T10:22:41.174Z,101208.78
2023-05-06T10:25:30.117Z,101199.81
2023-05-06T10:27:58.227Z,101209.03
2023-05-06T10:30:28.444Z,101214.28
2023-05-06T10:32:57.102Z,101207.81
2023-05-06T10:35:55.466Z,101203.53
2023-05-06T10:38:43.543Z,101203.56
2023-05-06T10:41:12.649Z,101199.94
2023-05-06T10:43:42.151Z,101197.50
2023-05-06T10:46:10.806Z,101187.19
2023-05-06T10:48:40.430Z,101201.78
2023-05-06T10:51:16.759Z,101204.50
2023-05-06T10:54:02.619Z,101200.25
2023-05-06T10:56:31.366Z,101198.56
2023-05-06T10:59:10.536Z,101200.97
2023-05-06T11:01:43.798Z,101198.41
2023-05-06T11:04:12.464Z,101193.00
2023-05-06T11:06:42.193Z,101198.78
2023-05-06T11:09:23.416Z,101198.06
2023-05-06T11:12:00.990Z,101192.25
2023-05-06T11:14:29.913Z,101200.59
2023-05-06T11:16:59.855Z,101189.53
2023-05-06T11:19:33.061Z,101195.13
2023-05-06T11:22:02.476Z,101191.84
2023-05-06T11:24:44.064Z,101192.97
2023-05-06T11:27:13.720Z,101193.28
2023-05-06T11:29:43.543Z,101203.16
2023-05-06T11:32:26.812Z,101195.59
2023-05-06T11:35:00.114Z,101190.25
2023-05-06T11:37:29.137Z,101182.22
2023-05-06T11:39:56.629Z,101185.34
2023-05-06T11:42:26.172Z,101179.06
2023-05-06T11:44:55.876Z,101181.97
2023-05-06T11:47:23.936Z,101174.16
2023-05-06T11:49:54.353Z,101191.91
2023-05-06T11:52:22.127Z,101180.84
2023-05-06T11:54:52.807Z,101190.16
2023-05-06T11:57:20.653Z,101175.44
2023-05-06T11:59:54.337Z,101182.00
2023-05-06T12:02:21.993Z,101171.91
2023-05-06T12:04:53.260Z,101172.78
2023-05-06T12:07:20.992Z,101169.00
2023-05-06T12:09:50.395Z,101180.00
2023-05-06T12:12:22.493Z,101179.63
2023-05-06T12:14:53.196Z,101178.53
2023-05-06T12:17:20.950Z,101170.75
2023-05-06T12:19:48.510Z,101175.00
2023-05-06T12:22:20.813Z,101171.50
2023-05-06T12:24:49.279Z,101175.41
2023-05-06T12:27:37.310Z,101168.13
2023-05-06T12:30:08.930Z,101173.25
2023-05-06T12:32:57.396Z,101173.34
2023-05-06T12:35:29.642Z,101168.59
2023-05-06T12:38:07.256Z,101176.50
2023-05-06T12:40:35.189Z,101179.31
2023-05-06T12:43:02.772Z,101175.69
2023-05-06T12:45:30.628Z,101183.00
2023-05-06T12:48:02.428Z,101181.56
2023-05-06T12:50:41.528Z,101173.72
2023-05-06T12:53:11.105Z,101175.94
2023-05-06T12:55:39.862Z,101173.75
2023-05-06T12:58:20.706Z,101172.69
2023-05-06T13:00:48.376Z,101172.69
2023-05-06T13:03:15.955Z,101175.44
2023-05-06T13:05:43.530Z,101179.91
2023-05-06T13:08:11.541Z,101175.31
2023-05-06T13:10:39.465Z,101177.41
2023-05-06T13:13:07.426Z,101180.56
2023-05-06T13:15:35.716Z,101185.81
2023-05-06T13:18:03.482Z,101174.47
2023-05-06T13:20:32.476Z,101178.88
2023-05-06T13:23:00.652Z,101170.94
2023-05-06T13:25:28.035Z,101182.25
2023-05-06T13:27:55.862Z,101175.94
2023-05-06T13:30:23.372Z,101173.75
2023-05-06T13:32:50.959Z,101167.69
2023-05-06T13:35:18.544Z,101175.94
2023-05-06T13:37:46.026Z,101183.97
2023-05-06T13:40:14.680Z,101182.84
2023-05-06T13:42:42.419Z,101191.09
2023-05-06T13:45:10.216Z,101193.84
2023-05-06T13:47:38.373Z,101187.19
2023-05-06T13:50:06.633Z,101183.06
2023-05-06T13:52:34.376Z,101183.44
2023-05-06T13:55:01.931Z,101191.88
2023-05-06T13:57:29.715Z,101182.84
2023-05-06T13:59:57.219Z,101192.72
2023-05-06T14:02:24.757Z,101191.63
2023-05-06T14:04:52.693Z,101183.97
2023-05-06T14:07:20.170Z,101192.59
2023-05-06T14:09:47.622Z,101196.66
2023-05-06T14:12:16.255Z,101203.84
2023-05-06T14:14:44.073Z,101209.78
2023-05-06T14:17:11.520Z,101191.59
2023-05-06T14:19:39.199Z,101196.91
2023-05-06T14:22:06.774Z,101193.09
2023-05-06T14:24:34.698Z,101199.19
2023-05-06T14:27:02.337Z,101197.72
2023-05-06T14:29:30.021Z,101195.03
2023-05-06T14:31:57.567Z,101200.31
2023-05-06T14:34:26.734Z,101192.50
2023-05-06T14:36:54.175Z,101192.72
2023-05-06T14:39:21.633Z,101202.47
2023-05-06T14:41:49.147Z,101198.56
2023-05-06T14:44:16.685Z,101199.91
2023-05-06T14:46:44.210Z,101203.91
2023-05-06T14:49:11.619Z,101204.66
2023-05-06T14:51:39.115Z,101205.00
2023-05-06T14:54:06.638Z,101203.72
2023-05-06T14:56:34.264Z,101206.88
2023-05-06T14:59:03.222Z,101206.25
2023-05-06T15:01:33.666Z,101204.53
2023-05-06T15:04:01.218Z,101203.84
2023-05-06T15:06:28.982Z,101212.41
2023-05-06T15:08:56.778Z,101209.69
2023-05-06T15:11:24.270Z,101210.13
2023-05-06T15:13:51.805Z,101208.97
2023-05-06T15:16:19.337Z,101205.00
2023-05-06T15:18:46.910Z,101212.78
2023-05-06T15:21:14.421Z,101204.56
2023-05-06T15:23:43.040Z,101200.97
2023-05-06T15:26:10.528Z,101210.81
2023-05-06T15:28:39.469Z,101204.97
2023-05-06T15:31:07.132Z,101199.41
2023-05-06T15:33:34.700Z,101210.16
2023-05-06T15:36:02.148Z,101211.00
2023-05-06T15:38:52.692Z,101220.56
2023-05-06T15:41:20.877Z,101212.69
2023-05-06T15:43:48.342Z,101214.94
2023-05-06T15:46:15.996Z,101213.56
2023-05-06T15:48:43.553Z,101219.47
2023-05-06T15:51:11.072Z,101207.56
2023-05-06T15:53:42.634Z,101218.25
2023-05-06T15:56:18.150Z,101222.75
2023-05-06T15:58:46.484Z,101218.25
2023-05-06T16:01:14.830Z,101210.81
2023-05-06T16:03:42.933Z,101220.84
2023-05-06T16:06:11.191Z,101218.63
2023-05-06T16:08:39.028Z,101218.28
2023-05-06T16:11:07.216Z,101204.47
2023-05-06T16:13:34.906Z,101215.56
2023-05-06T16:16:02.521Z,101214.91
2023-05-06T16:18:30.855Z,101218.88
2023-05-06T16:20:58.254Z,101229.72
2023-05-06T16:23:26.337Z,101230.13
2023-05-06T16:25:54.833Z,101229.81
2023-05-06T16:28:24.360Z,101236.19
2023-05-06T16:30:51.887Z,101242.13
2023-05-06T16:33:19.318Z,101243.00
2023-05-06T16:35:46.836Z,101235.88
2023-05-06T16:38:14.477Z,101252.28
2023-05-06T16:40:42.756Z,101253.91
2023-05-06T16:43:10.499Z,101246.81
2023-05-06T16:45:39.662Z,101251.41
2023-05-06T16:48:07.326Z,101262.94
2023-05-06T16:50:35.135Z,101274.44
2023-05-06T16:53:02.692Z,101275.19
2023-05-06T16:55:30.262Z,101289.84
2023-05-06T16:58:00.594Z,101291.19
2023-05-06T17:00:29.169Z,101298.69
2023-05-06T17:02:56.713Z,101306.19
2023-05-06T17:05:24.423Z,101300.13
2023-05-06T17:07:52.590Z,101310.47
2023-05-06T17:10:20.877Z,101314.75
2023-05-06T17:12:48.407Z,101306.94
2023-05-06T17:15:16.234Z,101310.31
2023-05-06T17:17:43.747Z,101328.28
2023-05-06T17:20:11.932Z,101334.94
2023-05-06T17:22:39.803Z,101331.97
2023-05-06T17:25:07.770Z,101333.06
2023-05-06T17:27:35.448Z,101339.19
2023-05-06T17:30:03.018Z,101347.31
2023-05-06T17:32:31.677Z,101355.22
2023-05-06T17:34:59.291Z,101358.06
2023-05-06T17:37:26.939Z,101365.06
2023-05-06T17:39:54.734Z,101368.28
2023-05-06T17:42:22.324Z,101367.97
2023-05-06T17:44:49.783Z,101374.28
2023-05-06T17:47:23.188Z,101379.78
2023-05-06T17:49:53.190Z,101374.09
2023-05-06T17:52:20.929Z,101385.16
2023-05-06T17:55:01.504Z,101381.00
2023-05-06T17:57:38.987Z,101383.88
2023-05-06T18:00:07.605Z,101390.81
2023-05-06T18:02:39.805Z,101383.38
2023-05-06T18:05:08.383Z,101384.41
2023-05-06T18:07:36.278Z,101396.03
2023-05-06T18:10:04.071Z,101399.28
2023-05-06T18:12:32.322Z,101407.50
2023-05-06T18:15:00.744Z,101415.06
2023-05-06T18:17:28.326Z,101408.59
2023-05-06T18:19:55.933Z,101416.38
2023-05-06T18:22:23.419Z,101424.72
2023-05-06T18:24:55.229Z,101426.03
2023-05-06T18:27:23.350Z,101423.84
2023-05-06T18:29:51.560Z,101427.69
2023-05-06T18:32:19.259Z,101421.34
2023-05-06T18:34:46.682Z,101419.09
2023-05-06T18:37:14.278Z,101419.56
2023-05-06T18:39:42.744Z,101418.88
2023-05-06T18:42:10.236Z,101425.19
2023-05-06T18:44:38.143Z,101419.25
2023-05-06T18:47:05.839Z,101424.53
2023-05-06T18:49:33.412Z,101425.66
2023-05-06T18:52:02.350Z,101428.31
2023-05-06T18:54:30.023Z,101434.94
2023-05-06T18:56:58.627Z,101450.88
2023-05-06T18:59:26.424Z,101450.19
2023-05-06T19:01:53.931Z,101450.19
2023-05-06T19:04:21.441Z,101447.84
2023-05-06T19:06:48.980Z,101442.75
2023-05-06T19:09:16.583Z,101443.22
2023-05-06T19:11:44.407Z,101449.59
2023-05-06T19:14:11.968Z,101455.91
2023-05-06T19:16:39.598Z,101460.28
2023-05-06T19:19:07.462Z,101455.13
2023-05-06T19:21:35.908Z,101461.69
2023-05-06T19:24:03.539Z,101459.38
2023-05-06T19:26:31.809Z,101462.41
2023-05-06T19:28:59.413Z,101470.25
2023-05-06T19:31:26.989Z,101479.75
2023-05-06T19:33:54.665Z,101485.91
2023-05-06T19:36:22.472Z,101471.13
2023-05-06T19:38:49.935Z,101482.03
2023-05-06T19:41:17.420Z,101487.75
2023-05-06T19:43:45.122Z,101489.72
2023-05-06T19:46:12.997Z,101491.59
2023-05-06T19:48:40.584Z,101493.53
2023-05-06T19:51:08.432Z,101491.28
2023-05-06T19:53:36.728Z,101502.88
2023-05-06T19:56:14.201Z,101498.78
2023-05-06T19:58:42.035Z,101503.50
2023-05-06T20:01:09.546Z,101498.19
2023-05-06T20:03:37.665Z,101500.84
2023-05-06T20:06:05.479Z,101497.53
2023-05-06T20:08:33.292Z,101491.22
2023-05-06T20:11:01.100Z,101496.34
2023-05-06T20:13:29.007Z,101490.34
2023-05-06T20:15:57.537Z,101509.72
2023-05-06T20:18:25.487Z,101513.34
2023-05-06T20:20:53.059Z,101501.97
2023-05-06T20:23:20.490Z,101505.41
2023-05-06T20:25:48.197Z,101500.00
2023-05-06T20:28:18.347Z,101502.03
2023-05-06T20:30:45.961Z,101502.28
2023-05-06T20:33:13.883Z,101503.66
2023-05-06T20:35:41.482Z,101506.44
2023-05-06T20:38:09.419Z,101496.91
2023-05-06T20:40:37.078Z,101505.91
2023-05-06T20:43:04.832Z,101504.84
2023-05-06T20:45:33.118Z,101509.41
2023-05-06T20:48:00.747Z,101505.75
2023-05-06T20:50:30.010Z,101510.38
2023-05-06T20:52:57.564Z,101513.31
2023-05-06T20:55:25.858Z,101514.19
2023-05-06T20:57:53.506Z,101501.78
2023-05-06T21:00:21.794Z,101502.22
2023-05-06T21:02:49.576Z,101510.59
2023-05-06T21:05:17.223Z,101522.00
2023-05-06T21:07:45.801Z,101508.00
2023-05-06T21:10:14.434Z,101517.00
2023-05-06T21:12:47.784Z,101513.22
2023-05-06T21:15:15.607Z,101512.91
2023-05-06T21:17:43.313Z,101509.16
2023-05-06T21:20:11.796Z,101514.75
2023-05-06T21:22:40.095Z,101505.66
2023-05-06T21:25:08.940Z,101509.38
2023-05-06T21:27:36.698Z,101518.91
2023-05-06T21:30:04.589Z,101516.22
2023-05-06T21:32:33.417Z,101518.84
2023-05-06T21:35:02.246Z,101508.69
2023-05-06T21:37:30.157Z,101518.28
2023-05-06T21:39:57.746Z,101517.31
2023-05-06T21:42:25.631Z,101508.69
2023-05-06T21:44:53.122Z,101523.09
2023-05-06T21:47:20.569Z,101530.03
2023-05-06T21:49:48.110Z,101526.88
2023-05-06T21:52:15.595Z,101531.38
2023-05-06T21:54:45.984Z,101526.94
2023-05-06T21:57:13.522Z,101538.44
2023-05-06T21:59:41.065Z,101531.91
2023-05-06T22:02:08.558Z,101519.81
2023-05-06T22:04:36.110Z,101518.13
2023-05-06T22:07:03.729Z,101517.41
2023-05-06T22:09:32.104Z,101521.81
2023-05-06T22:11:59.783Z,101519.75
2023-05-06T22:14:37.324Z,101519.75
2023-05-06T22:17:10.492Z,101523.47
2023-05-06T22:19:38.590Z,101521.59
2023-05-06T22:22:06.630Z,101522.97
2023-05-06T22:24:34.468Z,101529.16
2023-05-06T22:27:02.061Z,101520.19
2023-05-06T22:29:29.585Z,101514.38
2023-05-06T22:31:57.156Z,101526.94
2023-05-06T22:34:24.745Z,101508.66
2023-05-06T22:36:52.311Z,101507.88
2023-05-06T22:39:19.802Z,101502.63
2023-05-06T22:41:49.447Z,101516.88
2023-05-06T22:44:17.501Z,101513.94
2023-05-06T22:46:45.061Z,101502.47
2023-05-06T22:49:12.520Z,101512.22
2023-05-06T22:51:40.225Z,101503.19
2023-05-06T22:54:07.875Z,101497.53
2023-05-06T22:56:35.474Z,101487.25
2023-05-06T22:59:03.278Z,101509.94
2023-05-06T23:01:32.311Z,101510.06
2023-05-06T23:04:00.213Z,101514.44
2023-05-06T23:06:28.050Z,101497.03
2023-05-06T23:08:55.770Z,101506.78
2023-05-06T23:11:23.706Z,101502.44
2023-05-06T23:13:51.214Z,101490.25
2023-05-06T23:16:18.837Z,101500.25
2023-05-06T23:18:46.342Z,101507.25
2023-05-06T23:21:13.884Z,101507.19
2023-05-06T23:23:41.426Z,101502.84
2023-05-06T23:26:08.906Z,101497.81
2023-05-06T23:28:36.763Z,101502.06
2023-05-06T23:31:04.223Z,101514.31
2023-05-06T23:33:31.795Z,101517.41
2023-05-06T23:36:00.823Z,101504.22
2023-05-06T23:38:28.812Z,101513.06
2023-05-06T23:40:56.490Z,101519.72
2023-05-06T23:43:23.987Z,101513.72
2023-05-06T23:45:51.739Z,101514.09
2023-05-06T23:48:19.235Z,101514.28
2023-05-06T23:50:46.733Z,101521.47
2023-05-06T23:53:14.230Z,101502.16
2023-05-06T23:55:42.952Z,101511.22
2023-05-06T23:58:10.500Z,101506.72
